createdAt,value
2023-02-03T00:00:18.236Z,21.90
2023-02-03T00:03:19.977Z,22.80
2023-02-03T00:06:21.925Z,17.50
2023-02-03T00:09:23.590Z,18.20
2023-02-03T00:12:25.173Z,19.90
2023-02-03T00:15:27.335Z,17.20
2023-02-03T00:18:28.920Z,19.00
2023-02-03T00:21:30.590Z,17.30
2023-02-03T00:24:32.274Z,25.30
2023-02-03T00:27:33.846Z,23.30
2023-02-03T00:30:36.099Z,25.90
2023-02-03T00:33:39.106Z,20.10
2023-02-03T00:36:42.871Z,20.40
2023-02-03T00:39:44.764Z,19.20
2023-02-03T00:42:46.450Z,20.70
2023-02-03T00:45:48.140Z,22.00
2023-02-03T00:48:49.875Z,22.80
2023-02-03T00:51:52.220Z,27.60
2023-02-03T00:54:55.970Z,20.30
2023-02-03T00:57:57.591Z,27.50
2023-02-03T01:00:59.306Z,26.90
2023-02-03T01:04:00.960Z,24.80
2023-02-03T01:07:02.650Z,24.40
2023-02-03T01:10:05.459Z,24.20
2023-02-03T01:13:08.078Z,29.90
2023-02-03T01:16:12.370Z,28.20
2023-02-03T01:19:14.901Z,28.80
2023-02-03T01:22:16.472Z,21.20
2023-02-03T01:25:22.424Z,21.20
2023-02-03T01:28:24.059Z,23.50
2023-02-03T01:31:32.865Z,23.00
2023-02-03T01:34:34.538Z,22.20
2023-02-03T01:37:36.135Z,26.10
2023-02-03T01:40:45.337Z,24.90
2023-02-03T01:43:51.276Z,24.20
2023-02-03T01:46:53.246Z,21.70
2023-02-03T01:49:57.915Z,29.40
2023-02-03T01:53:04.049Z,25.10
2023-02-03T01:56:06.468Z,23.50
2023-02-03T01:59:08.228Z,24.10
2023-02-03T02:02:10.563Z,24.40
2023-02-03T02:05:32.984Z,20.60
2023-02-03T02:08:36.562Z,24.20
2023-02-03T02:11:38.128Z,25.70
2023-02-03T02:14:40.448Z,26.10
2023-02-03T02:18:11.209Z,21.50
2023-02-03T02:21:31.217Z,22.40
2023-02-03T02:24:51.447Z,25.50
2023-02-03T02:28:21.191Z,22.40
2023-02-03T02:31:40.132Z,27.40
2023-02-03T02:34:54.814Z,20.00
2023-02-03T02:38:02.151Z,22.20
2023-02-03T02:41:11.331Z,32.10
2023-02-03T02:44:23.334Z,25.20
2023-02-03T02:47:25.098Z,23.00
2023-02-03T02:50:29.134Z,23.80
2023-02-03T02:53:35.780Z,33.50
2023-02-03T02:56:39.361Z,26.70
2023-02-03T02:59:41.113Z,32.70
2023-02-03T03:02:42.842Z,28.10
2023-02-03T03:06:00.142Z,29.10
2023-02-03T03:09:26.073Z,26.90
2023-02-03T03:12:44.119Z,29.10
2023-02-03T03:15:47.016Z,24.70
2023-02-03T03:19:02.034Z,28.30
2023-02-03T03:22:06.609Z,30.50
2023-02-03T03:25:18.354Z,31.20
2023-02-03T03:28:26.733Z,30.90
2023-02-03T03:31:28.599Z,35.10
2023-02-03T03:34:31.057Z,30.00
2023-02-03T03:37:36.548Z,33.90
2023-02-03T03:40:50.437Z,38.10
2023-02-03T03:43:53.329Z,34.80
2023-02-03T03:47:12.623Z,35.20
2023-02-03T03:50:18.074Z,37.30
2023-02-03T03:53:20.146Z,40.50
2023-02-03T03:56:37.815Z,33.90
2023-02-03T03:59:41.396Z,31.30
2023-02-03T04:02:46.458Z,41.90
2023-02-03T04:08:49.855Z,48.20
2023-02-03T04:12:05.865Z,39.70
2023-02-03T04:15:07.931Z,49.10
2023-02-03T04:18:12.479Z,42.50
2023-02-03T04:21:14.039Z,43.00
2023-02-03T04:24:15.691Z,42.50
2023-02-03T04:27:17.296Z,33.30
2023-02-03T04:30:18.982Z,35.60
2023-02-03T04:33:20.558Z,41.70
2023-02-03T04:36:22.185Z,40.10
2023-02-03T04:39:23.830Z,43.90
2023-02-03T04:42:26.092Z,44.30
2023-02-03T04:45:27.713Z,43.00
2023-02-03T04:48:29.403Z,34.90
2023-02-03T04:51:30.993Z,36.40
2023-02-03T04:54:32.965Z,37.50
2023-02-03T04:57:34.848Z,34.80
2023-02-03T05:00:36.472Z,47.40
2023-02-03T05:03:38.163Z,41.60
2023-02-03T05:06:39.862Z,39.00
2023-02-03T05:09:41.479Z,49.50
2023-02-03T05:12:44.029Z,44.90
2023-02-03T05:15:45.636Z,47.20
2023-02-03T05:18:47.241Z,55.10
2023-02-03T05:21:48.835Z,54.80
2023-02-03T05:24:50.403Z,52.10
2023-02-03T05:27:52.043Z,57.10
2023-02-03T05:30:53.719Z,55.70
2023-02-03T05:33:55.362Z,64.00
2023-02-03T05:36:57.025Z,62.50
2023-02-03T05:40:18.557Z,57.60
2023-02-03T05:43:20.402Z,54.70
2023-02-03T05:46:22.057Z,53.60
2023-02-03T05:49:24.362Z,54.20
2023-02-03T05:52:25.995Z,50.60
2023-02-03T05:55:28.625Z,47.10
2023-02-03T05:58:30.248Z,50.30
2023-02-03T06:01:32.832Z,47.50
2023-02-03T06:04:34.483Z,46.20
2023-02-03T06:07:36.114Z,62.60
2023-02-03T06:10:37.807Z,70.30
2023-02-03T06:13:39.653Z,50.10
2023-02-03T06:16:41.341Z,56.80
2023-02-03T06:19:42.949Z,54.40
2023-02-03T06:22:44.512Z,59.20
2023-02-03T06:25:54.745Z,59.20
2023-02-03T06:28:56.419Z,63.90
2023-02-03T06:31:58.326Z,54.10
2023-02-03T06:35:00.092Z,58.70
2023-02-03T06:38:01.783Z,51.90
2023-02-03T06:41:03.514Z,53.30
2023-02-03T06:44:05.181Z,52.50
2023-02-03T06:47:06.805Z,52.60
2023-02-03T06:50:09.784Z,55.30
2023-02-03T06:53:11.421Z,51.50
2023-02-03T06:56:13.040Z,51.90
2023-02-03T06:59:14.687Z,56.40
2023-02-03T07:02:16.771Z,53.50
2023-02-03T07:05:18.438Z,55.50
2023-02-03T07:08:20.107Z,60.60
2023-02-03T07:11:21.942Z,60.90
2023-02-03T07:14:23.641Z,51.00
2023-02-03T07:17:25.169Z,56.00
2023-02-03T07:20:29.106Z,53.00
2023-02-03T07:23:31.168Z,56.10
2023-02-03T07:26:32.782Z,60.10
2023-02-03T07:29:34.440Z,55.10
2023-02-03T07:32:36.044Z,53.30
2023-02-03T07:35:37.674Z,52.70
2023-02-03T07:38:39.286Z,56.40
2023-02-03T07:41:40.959Z,53.50
2023-02-03T07:44:42.579Z,52.00
2023-02-03T07:47:44.526Z,57.00
2023-02-03T07:50:48.260Z,54.80
2023-02-03T07:53:49.875Z,55.40
2023-02-03T07:56:51.515Z,64.20
2023-02-03T07:59:53.412Z,55.30
2023-02-03T08:02:55.055Z,54.80
2023-02-03T08:05:56.599Z,45.50
2023-02-03T08:08:58.295Z,61.30
2023-02-03T08:11:59.927Z,57.10
2023-02-03T08:15:01.821Z,59.80
2023-02-03T08:18:03.569Z,60.30
2023-02-03T08:21:05.479Z,58.40
2023-02-03T08:24:07.230Z,56.60
2023-02-03T08:27:08.910Z,61.90
2023-02-03T08:30:13.494Z,61.90
2023-02-03T08:33:15.188Z,60.80
2023-02-03T08:36:16.813Z,61.50
2023-02-03T08:39:18.594Z,64.60
2023-02-03T08:42:20.448Z,59.60
2023-02-03T08:45:22.173Z,62.30
2023-02-03T08:48:23.867Z,61.30
2023-02-03T08:51:25.535Z,64.80
2023-02-03T08:54:27.428Z,64.10
2023-02-03T08:57:34.276Z,63.10
2023-02-03T09:00:35.994Z,61.70
2023-02-03T09:03:38.538Z,65.80
2023-02-03T09:06:40.492Z,72.50
2023-02-03T09:09:42.568Z,71.00
2023-02-03T09:12:44.287Z,70.50
2023-02-03T09:15:46.013Z,71.60
2023-02-03T09:18:48.293Z,78.10
2023-02-03T09:21:50.023Z,69.30
2023-02-03T09:24:51.994Z,74.20
2023-02-03T09:27:53.827Z,75.40
2023-02-03T09:31:00.855Z,76.90
2023-02-03T09:34:02.521Z,81.90
2023-02-03T09:37:04.695Z,88.90
2023-02-03T09:40:06.927Z,78.80
2023-02-03T09:43:42.985Z,95.60
2023-02-03T09:47:00.226Z,88.80
2023-02-03T09:53:11.738Z,89.70
2023-02-03T09:56:33.041Z,88.20
2023-02-03T09:59:35.125Z,87.10
2023-02-03T10:02:57.063Z,88.50
2023-02-03T10:06:14.134Z,83.00
2023-02-03T10:09:46.085Z,86.10
2023-02-03T10:13:10.270Z,85.90
2023-02-03T10:16:36.263Z,82.60
2023-02-03T10:19:46.317Z,83.90
2023-02-03T10:22:55.144Z,86.10
2023-02-03T10:25:58.548Z,94.90
2023-02-03T10:29:24.914Z,88.50
2023-02-03T10:32:27.653Z,88.20
2023-02-03T10:35:39.585Z,89.80
2023-02-03T10:38:53.216Z,93.50
2023-02-03T10:41:55.034Z,87.20
2023-02-03T10:44:58.427Z,92.20
2023-02-03T10:48:00.356Z,88.90
2023-02-03T10:51:03.071Z,87.30
2023-02-03T10:54:04.824Z,95.50
2023-02-03T10:57:12.182Z,80.90
2023-02-03T11:00:17.033Z,81.00
2023-02-03T11:03:29.608Z,94.80
2023-02-03T11:06:33.128Z,89.90
2023-02-03T11:09:38.305Z,85.40
2023-02-03T11:12:39.931Z,94.80
2023-02-03T11:15:47.814Z,94.80
2023-02-03T11:19:17.377Z,102.50
2023-02-03T11:25:38.136Z,96.40
2023-02-03T11:28:43.200Z,97.20
2023-02-03T11:31:49.453Z,96.40
2023-02-03T11:35:01.186Z,87.20
2023-02-03T11:38:02.904Z,100.20
2023-02-03T11:41:04.887Z,98.60
2023-02-03T11:44:20.859Z,97.50
2023-02-03T11:47:23.880Z,103.80
2023-02-03T11:50:31.956Z,101.90
2023-02-03T11:54:11.684Z,101.10
2023-02-03T11:57:36.789Z,96.70
2023-02-03T12:00:50.572Z,93.30
2023-02-03T12:04:08.509Z,99.80
2023-02-03T12:07:35.110Z,95.50
2023-02-03T12:11:09.961Z,99.50
2023-02-03T12:14:47.633Z,96.80
2023-02-03T12:18:05.642Z,100.30
2023-02-03T12:21:10.290Z,101.30
2023-02-03T12:24:25.092Z,93.40
2023-02-03T12:27:32.664Z,104.10
2023-02-03T12:30:47.166Z,96.80
2023-02-03T12:33:54.478Z,103.10
2023-02-03T12:37:08.067Z,104.60
2023-02-03T12:40:20.387Z,98.60
2023-02-03T12:43:42.159Z,98.70
2023-02-03T12:46:47.578Z,106.80
2023-02-03T12:49:59.797Z,107.90
2023-02-03T12:53:10.972Z,99.80
2023-02-03T12:56:15.540Z,98.70
2023-02-03T12:59:23.141Z,104.90
2023-02-03T13:02:30.939Z,106.20
2023-02-03T13:05:47.420Z,98.00
2023-02-03T13:09:06.150Z,93.40
2023-02-03T13:12:15.398Z,98.30
2023-02-03T13:15:33.182Z,104.00
2023-02-03T13:18:37.933Z,88.30
2023-02-03T13:21:39.829Z,79.10
2023-02-03T13:24:46.947Z,101.90
2023-02-03T13:28:03.083Z,92.10
2023-02-03T13:31:29.834Z,92.60
2023-02-03T13:35:00.975Z,107.40
2023-02-03T13:38:12.040Z,93.80
2023-02-03T13:41:14.194Z,94.00
2023-02-03T13:44:19.993Z,104.10
2023-02-03T13:47:27.344Z,91.90
2023-02-03T13:50:30.673Z,90.80
2023-02-03T13:53:39.407Z,93.70
2023-02-03T13:56:41.436Z,85.40
2023-02-03T13:59:45.773Z,72.10
2023-02-03T14:02:55.106Z,90.00
2023-02-03T14:05:58.662Z,84.60
2023-02-03T14:09:00.515Z,95.20
2023-02-03T14:12:30.129Z,84.80
2023-02-03T14:15:33.130Z,80.60
2023-02-03T14:18:45.018Z,98.40
2023-02-03T14:21:51.701Z,93.50
2023-02-03T14:24:55.007Z,87.80
2023-02-03T14:28:06.719Z,89.70
2023-02-03T14:31:17.629Z,99.90
2023-02-03T14:34:29.608Z,98.90
2023-02-03T14:37:31.571Z,95.80
2023-02-03T14:40:52.100Z,92.30
2023-02-03T14:44:32.989Z,91.10
2023-02-03T14:47:34.734Z,91.00
2023-02-03T14:51:04.370Z,95.90
2023-02-03T14:54:18.168Z,94.70
2023-02-03T14:57:40.290Z,94.40
2023-02-03T15:00:42.005Z,114.20
2023-02-03T15:04:12.702Z,97.00
2023-02-03T15:07:49.446Z,104.50
2023-02-03T15:10:51.364Z,93.40
2023-02-03T15:13:54.350Z,100.70
2023-02-03T15:17:13.976Z,92.40
2023-02-03T15:20:41.539Z,100.00
2023-02-03T15:23:48.355Z,100.00
2023-02-03T15:26:53.180Z,99.10
2023-02-03T15:29:57.267Z,97.00
2023-02-03T15:33:15.067Z,93.00
2023-02-03T15:36:28.138Z,97.80
2023-02-03T15:39:54.071Z,91.00
2023-02-03T15:43:01.493Z,97.70
2023-02-03T15:46:28.027Z,97.10
2023-02-03T15:49:54.607Z,97.60
2023-02-03T15:53:01.392Z,101.80
2023-02-03T15:56:05.529Z,98.10
2023-02-03T15:59:40.240Z,104.60
2023-02-03T16:02:45.914Z,96.30
2023-02-03T16:05:51.556Z,92.80
2023-02-03T16:08:54.863Z,92.00
2023-02-03T16:12:16.444Z,94.50
2023-02-03T16:15:22.262Z,96.90
2023-02-03T16:18:24.434Z,102.30
2023-02-03T16:21:31.034Z,94.20
2023-02-03T16:24:32.720Z,102.90
2023-02-03T16:27:34.508Z,95.60
2023-02-03T16:30:55.229Z,93.00
2023-02-03T16:34:15.612Z,95.60
2023-02-03T16:37:54.025Z,91.60
2023-02-03T16:41:14.729Z,94.30
2023-02-03T16:44:35.847Z,89.00
2023-02-03T16:47:57.671Z,92.10
2023-02-03T16:51:05.575Z,98.90
2023-02-03T16:54:10.565Z,95.30
2023-02-03T16:57:12.261Z,95.40
2023-02-03T17:00:14.913Z,87.90
2023-02-03T17:03:22.567Z,91.20
2023-02-03T17:06:24.212Z,100.20
2023-02-03T17:09:25.982Z,102.20
2023-02-03T17:12:30.818Z,99.70
2023-02-03T17:15:32.659Z,89.70
2023-02-03T17:18:35.312Z,103.90
2023-02-03T17:21:37.635Z,99.00
2023-02-03T17:24:39.371Z,98.40
2023-02-03T17:27:41.165Z,95.50
2023-02-03T17:30:42.947Z,99.60
2023-02-03T17:33:45.085Z,104.90
2023-02-03T17:36:46.759Z,98.60
2023-02-03T17:56:08.815Z,105.10
2023-02-03T17:59:10.527Z,99.50
2023-02-03T18:02:12.251Z,107.60
2023-02-03T18:05:13.871Z,111.30
2023-02-03T18:08:16.693Z,102.70
2023-02-03T18:11:21.932Z,69.40
2023-02-03T18:14:23.725Z,104.20
2023-02-03T18:17:25.343Z,102.20
2023-02-03T18:20:27.257Z,101.80
2023-02-03T18:23:29.882Z,94.80
2023-02-03T18:26:34.772Z,103.80
2023-02-03T18:29:36.717Z,101.50
2023-02-03T18:32:38.425Z,99.20
2023-02-03T18:35:40.018Z,87.50
2023-02-03T18:38:43.391Z,80.70
2023-02-03T18:41:45.040Z,87.80
2023-02-03T18:44:46.712Z,100.00
2023-02-03T18:47:48.446Z,104.50
2023-02-03T18:50:50.096Z,94.20
2023-02-03T18:53:52.289Z,88.40
2023-02-03T18:56:53.933Z,89.20
2023-02-03T18:59:55.822Z,91.40
2023-02-03T19:02:57.636Z,104.40
2023-02-03T19:06:09.688Z,107.10
2023-02-03T19:09:13.168Z,110.60
2023-02-03T19:12:14.949Z,94.00
2023-02-03T19:15:16.841Z,104.00
2023-02-03T19:18:18.567Z,101.70
2023-02-03T19:21:20.232Z,110.80
2023-02-03T19:24:22.098Z,98.40
2023-02-03T19:27:24.474Z,94.50
2023-02-03T19:30:26.235Z,87.10
2023-02-03T19:33:27.998Z,94.10
2023-02-03T19:36:30.917Z,88.70
2023-02-03T19:39:32.765Z,96.20
2023-02-03T19:42:34.409Z,104.00
2023-02-03T19:45:36.278Z,97.60
2023-02-03T19:48:38.668Z,90.70
2023-02-03T19:51:40.420Z,145.70
2023-02-03T19:54:42.153Z,112.90
2023-02-03T19:57:43.906Z,109.90
2023-02-03T20:00:45.489Z,112.60
2023-02-03T20:03:47.602Z,124.40
2023-02-03T20:06:49.302Z,111.30
2023-02-03T20:09:51.435Z,102.00
2023-02-03T20:12:54.893Z,106.40
2023-02-03T20:15:56.757Z,104.20
2023-02-03T20:18:58.467Z,120.20
2023-02-03T20:22:01.029Z,107.80
2023-02-03T20:25:02.687Z,104.40
2023-02-03T20:28:05.436Z,115.50
2023-02-03T20:31:07.314Z,118.10
2023-02-03T20:34:09.850Z,112.60
2023-02-03T20:37:12.000Z,125.00
2023-02-03T20:40:17.089Z,110.90
2023-02-03T20:43:22.610Z,113.40
2023-02-03T20:46:24.501Z,103.40
2023-02-03T20:49:26.287Z,99.50
2023-02-03T20:52:27.900Z,106.40
2023-02-03T20:55:29.590Z,108.70
2023-02-03T20:58:34.837Z,102.50
2023-02-03T21:01:36.558Z,106.00
2023-02-03T21:04:56.784Z,107.80
2023-02-03T21:07:58.649Z,103.50
2023-02-03T21:11:00.290Z,102.70
2023-02-03T21:14:05.524Z,101.60
2023-02-03T21:17:26.530Z,107.10
2023-02-03T21:20:31.267Z,95.10
2023-02-03T21:23:39.972Z,106.50
2023-02-03T21:26:41.622Z,95.60
2023-02-03T21:29:43.229Z,109.50
2023-02-03T21:32:45.363Z,105.00
2023-02-03T21:35:47.079Z,111.30
2023-02-03T21:38:51.339Z,106.20
2023-02-03T21:41:53.115Z,114.50
2023-02-03T21:44:54.776Z,113.80
2023-02-03T21:47:57.184Z,116.70
2023-02-03T21:51:15.432Z,111.20
2023-02-03T21:54:41.710Z,109.80
2023-02-03T21:57:43.445Z,102.70
2023-02-03T22:00:48.656Z,94.70
2023-02-03T22:03:51.855Z,94.40
2023-02-03T22:06:54.429Z,99.30
2023-02-03T22:09:56.055Z,96.30
2023-02-03T22:12:57.685Z,102.60
2023-02-03T22:15:59.533Z,110.10
2023-02-03T22:19:01.156Z,97.30
2023-02-03T22:22:02.804Z,99.50
2023-02-03T22:25:04.663Z,93.20
2023-02-03T22:28:06.499Z,86.00
2023-02-03T22:31:09.135Z,78.40
2023-02-03T22:34:11.083Z,74.10
2023-02-03T22:37:12.734Z,86.70
2023-02-03T22:40:14.483Z,89.60
2023-02-03T22:43:16.112Z,80.40
2023-02-03T22:46:17.916Z,72.60
2023-02-03T22:49:19.642Z,83.10
2023-02-03T22:52:21.312Z,74.90
2023-02-03T22:55:23.232Z,72.80
2023-02-03T22:58:24.806Z,73.70
2023-02-03T23:01:26.522Z,66.50
2023-02-03T23:04:28.176Z,75.10
2023-02-03T23:07:29.802Z,69.50
2023-02-03T23:10:31.987Z,69.20
2023-02-03T23:13:33.897Z,72.50
2023-02-03T23:16:36.472Z,67.50
2023-02-03T23:19:38.101Z,69.90
2023-02-03T23:22:39.861Z,74.10
2023-02-03T23:25:41.460Z,68.00
2023-02-03T23:28:43.079Z,57.90
2023-02-03T23:31:44.952Z,69.60
2023-02-03T23:35:05.599Z,64.10
2023-02-03T23:38:07.290Z,67.30
2023-02-03T23:41:08.922Z,69.60
2023-02-03T23:44:11.810Z,64.80
2023-02-03T23:47:13.496Z,67.40
2023-02-03T23:50:16.529Z,73.70
2023-02-03T23:53:18.149Z,67.00
2023-02-03T23:56:19.755Z,70.40
2023-02-03T23:59:21.423Z,65.30
